createdAt,value
2023-04-20T00:01:28.836Z,9.25
2023-04-20T00:04:16.065Z,8.15
2023-04-20T00:07:00.972Z,10.15
2023-04-20T00:09:46.152Z,9.23
2023-04-20T00:12:30.982Z,7.40
2023-04-20T00:15:16.307Z,8.73
2023-04-20T00:18:01.344Z,8.93
2023-04-20T00:20:46.806Z,8.27
2023-04-20T00:23:31.640Z,10.35
2023-04-20T00:26:18.802Z,9.88
2023-04-20T00:29:04.002Z,8.05
2023-04-20T00:31:49.296Z,9.98
2023-04-20T00:34:34.471Z,5.95
2023-04-20T00:37:19.668Z,6.80
2023-04-20T00:40:05.369Z,6.10
2023-04-20T00:42:50.721Z,10.50
2023-04-20T00:45:35.789Z,8.75
2023-04-20T00:48:22.073Z,8.30
2023-04-20T00:51:07.019Z,11.98
2023-04-20T00:53:51.721Z,11.38
2023-04-20T00:56:38.281Z,9.13
2023-04-20T00:59:24.269Z,7.10
2023-04-20T01:02:09.152Z,10.30
2023-04-20T01:04:54.583Z,9.38
2023-04-20T01:07:39.533Z,9.85
2023-04-20T01:10:24.543Z,12.52
2023-04-20T01:13:09.333Z,9.32
2023-04-20T01:15:59.981Z,8.75
2023-04-20T01:18:49.177Z,13.48
2023-04-20T01:21:34.334Z,9.77
2023-04-20T01:24:20.057Z,10.00
2023-04-20T01:27:04.951Z,8.30
2023-04-20T01:29:50.254Z,9.45
2023-04-20T01:32:35.393Z,10.52
2023-04-20T01:35:20.666Z,10.73
2023-04-20T01:38:05.576Z,13.27
2023-04-20T01:40:51.814Z,12.18
2023-04-20T01:43:38.220Z,11.35
2023-04-20T01:46:23.820Z,12.45
2023-04-20T01:49:08.816Z,10.25
2023-04-20T01:51:54.169Z,10.88
2023-04-20T01:54:39.296Z,8.77
2023-04-20T01:57:25.109Z,9.32
2023-04-20T02:00:11.245Z,11.60
2023-04-20T02:02:57.414Z,13.15
2023-04-20T02:05:42.557Z,14.98
2023-04-20T02:08:28.313Z,10.07
2023-04-20T02:11:13.290Z,14.90
2023-04-20T02:13:58.790Z,13.30
2023-04-20T02:16:43.542Z,13.32
2023-04-20T02:19:28.516Z,14.25
2023-04-20T02:22:13.479Z,12.23
2023-04-20T02:24:59.029Z,12.23
2023-04-20T02:27:43.869Z,14.73
2023-04-20T02:30:29.636Z,9.75
2023-04-20T02:33:14.761Z,10.63
2023-04-20T02:35:59.981Z,12.38
2023-04-20T02:38:45.104Z,12.65
2023-04-20T02:41:30.759Z,6.80
2023-04-20T02:44:15.686Z,10.32
2023-04-20T02:47:00.819Z,12.43
2023-04-20T02:49:46.058Z,13.77
2023-04-20T02:52:31.892Z,10.40
2023-04-20T02:55:16.798Z,10.45
2023-04-20T02:58:02.800Z,11.25
2023-04-20T03:00:48.302Z,13.05
2023-04-20T03:03:33.689Z,13.38
2023-04-20T03:06:19.269Z,12.80
2023-04-20T03:09:04.057Z,8.30
2023-04-20T03:11:49.928Z,8.65
2023-04-20T03:14:34.923Z,8.98
2023-04-20T03:17:20.198Z,8.57
2023-04-20T03:20:05.815Z,10.80
2023-04-20T03:22:51.029Z,9.90
2023-04-20T03:25:36.280Z,12.43
2023-04-20T03:28:21.732Z,12.23
2023-04-20T03:31:06.649Z,9.63
2023-04-20T03:33:52.052Z,8.95
2023-04-20T03:36:37.275Z,8.30
2023-04-20T03:39:22.146Z,8.70
2023-04-20T03:42:07.117Z,11.57
2023-04-20T03:44:52.869Z,8.98
2023-04-20T03:47:38.012Z,11.40
2023-04-20T03:50:22.808Z,8.40
2023-04-20T03:53:07.478Z,10.93
2023-04-20T03:55:52.568Z,11.13
2023-04-20T03:58:37.386Z,7.72
2023-04-20T04:01:22.246Z,8.65
2023-04-20T04:04:07.852Z,11.27
2023-04-20T04:06:52.552Z,8.50
2023-04-20T04:09:37.397Z,8.45
2023-04-20T04:12:22.289Z,12.32
2023-04-20T04:15:08.200Z,9.20
2023-04-20T04:17:56.091Z,10.48
2023-04-20T04:20:41.095Z,9.30
2023-04-20T04:23:26.351Z,9.32
2023-04-20T04:26:12.397Z,7.03
2023-04-20T04:28:58.030Z,9.05
2023-04-20T04:31:42.975Z,10.10
2023-04-20T04:34:29.724Z,7.93
2023-04-20T04:37:15.198Z,9.50
2023-04-20T04:40:00.576Z,13.32
2023-04-20T04:42:45.798Z,6.57
2023-04-20T04:45:31.756Z,10.05
2023-04-20T04:48:16.533Z,7.28
2023-04-20T04:51:02.450Z,9.20
2023-04-20T04:53:49.436Z,11.23
2023-04-20T04:56:34.713Z,10.82
2023-04-20T04:59:19.686Z,8.35
2023-04-20T05:02:04.889Z,7.40
2023-04-20T05:04:49.970Z,9.82
2023-04-20T05:07:35.502Z,11.50
2023-04-20T05:10:20.622Z,8.95
2023-04-20T05:13:05.723Z,9.38
2023-04-20T05:15:51.331Z,8.43
2023-04-20T05:18:36.268Z,9.45
2023-04-20T05:21:21.032Z,8.95
2023-04-20T05:24:07.365Z,10.18
2023-04-20T05:26:52.697Z,11.02
2023-04-20T05:29:38.468Z,10.40
2023-04-20T05:32:23.497Z,10.43
2023-04-20T05:35:08.934Z,8.88
2023-04-20T05:37:54.420Z,8.85
2023-04-20T05:40:39.106Z,11.93
2023-04-20T05:43:24.131Z,9.77
2023-04-20T05:46:08.954Z,9.98
2023-04-20T05:48:54.184Z,10.40
2023-04-20T05:51:39.472Z,12.68
2023-04-20T05:54:24.605Z,11.68
2023-04-20T05:57:11.993Z,10.50
2023-04-20T05:59:57.021Z,12.80
2023-04-20T06:02:43.318Z,11.82
2023-04-20T06:05:28.814Z,13.02
2023-04-20T06:08:14.080Z,14.05
2023-04-20T06:10:59.033Z,10.05
2023-04-20T06:13:44.434Z,12.00
2023-04-20T06:16:29.577Z,10.70
2023-04-20T06:19:14.314Z,13.25
2023-04-20T06:22:01.004Z,10.93
2023-04-20T06:24:46.580Z,12.98
2023-04-20T06:27:32.604Z,12.77
2023-04-20T06:30:17.655Z,13.55
2023-04-20T06:33:03.244Z,10.13
2023-04-20T06:35:48.007Z,12.70
2023-04-20T06:38:32.825Z,12.63
2023-04-20T06:41:17.946Z,14.13
2023-04-20T06:44:02.852Z,11.02
2023-04-20T06:46:47.630Z,12.02
2023-04-20T06:49:32.487Z,13.43
2023-04-20T06:52:17.384Z,11.43
2023-04-20T06:55:02.516Z,13.00
2023-04-20T06:57:47.666Z,13.02
2023-04-20T07:00:32.570Z,11.68
2023-04-20T07:03:18.895Z,11.07
2023-04-20T07:06:04.713Z,11.95
2023-04-20T07:08:49.898Z,10.00
2023-04-20T07:11:35.463Z,11.57
2023-04-20T07:14:20.880Z,13.15
2023-04-20T07:17:06.131Z,12.15
2023-04-20T07:19:52.365Z,9.18
2023-04-20T07:22:38.867Z,11.48
2023-04-20T07:25:24.831Z,10.93
2023-04-20T07:28:09.732Z,15.07
2023-04-20T07:30:54.683Z,9.98
2023-04-20T07:33:40.008Z,10.77
2023-04-20T07:36:25.049Z,10.23
2023-04-20T07:39:10.159Z,10.13
2023-04-20T07:41:55.097Z,10.55
2023-04-20T07:44:41.410Z,9.70
2023-04-20T07:47:26.661Z,10.55
2023-04-20T07:50:11.775Z,8.90
2023-04-20T07:52:56.829Z,10.80
2023-04-20T07:55:41.794Z,10.77
2023-04-20T07:58:26.565Z,9.65
2023-04-20T08:01:11.457Z,11.82
2023-04-20T08:03:56.852Z,8.25
2023-04-20T08:06:42.312Z,9.82
2023-04-20T08:09:30.692Z,7.93
2023-04-20T08:12:15.700Z,10.18
2023-04-20T08:15:01.915Z,10.45
2023-04-20T08:17:47.017Z,9.95
2023-04-20T08:23:27.632Z,10.48
2023-04-20T08:26:16.590Z,11.80
2023-04-20T08:29:02.716Z,11.02
2023-04-20T08:31:50.040Z,9.32
2023-04-20T08:34:36.323Z,11.73
2023-04-20T08:37:21.437Z,10.25
2023-04-20T08:40:06.968Z,11.00
2023-04-20T08:42:52.164Z,9.20
2023-04-20T08:45:37.542Z,8.73
2023-04-20T08:48:23.321Z,8.43
2023-04-20T08:51:08.765Z,11.93
2023-04-20T08:53:55.971Z,8.90
2023-04-20T08:56:43.785Z,9.65
2023-04-20T08:59:30.321Z,12.90
2023-04-20T09:02:15.703Z,9.70
2023-04-20T09:05:03.013Z,9.52
2023-04-20T09:07:53.260Z,8.27
2023-04-20T09:10:41.174Z,9.70
2023-04-20T09:13:25.836Z,9.88
2023-04-20T09:16:12.850Z,8.32
2023-04-20T09:19:00.307Z,8.57
2023-04-20T09:21:51.440Z,9.48
2023-04-20T09:24:38.818Z,9.60
2023-04-20T09:30:11.868Z,8.57
2023-04-20T09:33:08.445Z,9.60
2023-04-20T09:35:53.816Z,8.30
2023-04-20T09:38:38.728Z,7.80
2023-04-20T09:41:23.950Z,7.63
2023-04-20T09:44:10.766Z,11.70
2023-04-20T09:46:56.523Z,9.68
2023-04-20T09:49:43.632Z,9.63
2023-04-20T09:52:29.275Z,10.25
2023-04-20T09:55:14.224Z,9.82
2023-04-20T09:58:02.925Z,10.63
2023-04-20T10:00:47.900Z,9.63
2023-04-20T10:03:34.770Z,8.48
2023-04-20T10:06:24.734Z,8.93
2023-04-20T10:09:22.960Z,10.38
2023-04-20T10:12:09.609Z,10.32
2023-04-20T10:14:58.128Z,7.63
2023-04-20T10:17:43.347Z,9.05
2023-04-20T10:20:29.048Z,9.15
2023-04-20T10:23:18.879Z,10.60
2023-04-20T10:26:04.027Z,9.10
2023-04-20T10:28:49.555Z,7.57
2023-04-20T10:31:43.327Z,10.15
2023-04-20T10:34:32.715Z,8.73
2023-04-20T10:37:17.514Z,9.98
2023-04-20T10:40:07.919Z,8.57
2023-04-20T10:42:53.164Z,10.07
2023-04-20T10:45:38.572Z,9.88
2023-04-20T10:48:23.642Z,10.30
2023-04-20T10:51:10.021Z,9.57
2023-04-20T10:54:06.700Z,7.45
2023-04-20T10:56:52.931Z,8.35
2023-04-20T10:59:41.393Z,6.30
2023-04-20T11:02:27.969Z,8.30
2023-04-20T11:05:13.195Z,9.20
2023-04-20T11:08:01.006Z,9.43
2023-04-20T11:10:46.256Z,7.65
2023-04-20T11:13:32.808Z,7.65
2023-04-20T11:16:19.206Z,7.10
2023-04-20T11:19:04.852Z,8.40
2023-04-20T11:21:49.622Z,7.93
2023-04-20T11:24:35.879Z,8.32
2023-04-20T11:27:25.023Z,6.60
2023-04-20T11:30:10.345Z,6.35
2023-04-20T11:32:55.625Z,6.13
2023-04-20T11:35:44.626Z,7.20
2023-04-20T11:38:35.191Z,6.82
2023-04-20T11:41:20.326Z,7.40
2023-04-20T11:44:06.977Z,7.32
2023-04-20T11:46:55.138Z,6.88
2023-04-20T11:49:40.155Z,7.75
2023-04-20T11:52:25.728Z,9.65
2023-04-20T11:55:11.346Z,8.30
2023-04-20T11:57:56.223Z,8.25
2023-04-20T12:00:41.122Z,8.10
2023-04-20T12:03:28.049Z,10.38
2023-04-20T12:06:14.205Z,9.05
2023-04-20T12:08:59.604Z,9.00
2023-04-20T12:11:44.693Z,10.85
2023-04-20T12:14:29.783Z,10.85
2023-04-20T12:17:15.026Z,9.90
2023-04-20T12:20:00.493Z,11.52
2023-04-20T12:22:45.868Z,11.23
2023-04-20T12:25:30.817Z,9.18
2023-04-20T12:28:15.848Z,8.95
2023-04-20T12:31:00.997Z,10.88
2023-04-20T12:33:48.534Z,9.90
2023-04-20T12:36:35.111Z,12.75
2023-04-20T12:39:20.721Z,11.88
2023-04-20T12:42:05.921Z,10.77
2023-04-20T12:44:54.124Z,12.60
2023-04-20T12:47:40.983Z,12.93
2023-04-20T12:50:26.090Z,12.20
2023-04-20T12:53:11.484Z,11.88
2023-04-20T12:56:01.109Z,17.45
2023-04-20T12:58:47.076Z,12.80
2023-04-20T13:01:32.259Z,12.55
2023-04-20T13:04:17.511Z,14.68
2023-04-20T13:07:03.119Z,11.98
2023-04-20T13:09:48.303Z,14.32
2023-04-20T13:12:33.189Z,13.02
2023-04-20T13:15:31.777Z,13.68
2023-04-20T13:18:24.503Z,14.73
2023-04-20T13:21:09.522Z,11.68
2023-04-20T13:23:55.506Z,13.02
2023-04-20T13:29:28.519Z,9.05
2023-04-20T13:32:13.767Z,8.88
2023-04-20T13:35:00.588Z,8.52
2023-04-20T13:37:46.082Z,8.45
2023-04-20T13:40:31.215Z,9.73
2023-04-20T13:43:16.200Z,8.40
2023-04-20T13:46:02.048Z,10.07
2023-04-20T13:48:47.157Z,9.93
2023-04-20T13:51:32.490Z,8.73
2023-04-20T13:54:18.427Z,8.45
2023-04-20T13:57:03.781Z,8.55
2023-04-20T13:59:48.958Z,7.40
2023-04-20T14:02:33.982Z,8.32
2023-04-20T14:05:19.408Z,8.98
2023-04-20T14:08:06.820Z,9.13
2023-04-20T14:10:52.013Z,9.30
2023-04-20T14:13:37.739Z,8.00
2023-04-20T14:16:25.220Z,10.30
2023-04-20T14:19:10.188Z,9.43
2023-04-20T14:21:54.968Z,10.13
2023-04-20T14:24:40.676Z,10.07
2023-04-20T14:27:25.865Z,13.38
2023-04-20T14:30:11.430Z,13.77
2023-04-20T14:32:58.171Z,13.40
2023-04-20T14:35:43.565Z,14.05
2023-04-20T14:38:28.465Z,13.00
2023-04-20T14:41:13.401Z,15.23
2023-04-20T14:43:58.378Z,13.57
2023-04-20T14:46:43.889Z,13.77
2023-04-20T14:49:31.364Z,12.75
2023-04-20T14:52:16.424Z,14.82
2023-04-20T14:55:01.280Z,14.82
2023-04-20T14:57:46.202Z,15.95
2023-04-20T15:00:32.557Z,13.38
2023-04-20T15:03:18.296Z,11.80
2023-04-20T15:06:03.665Z,12.05
2023-04-20T15:08:49.080Z,12.80
2023-04-20T15:11:34.038Z,13.13
2023-04-20T15:14:20.313Z,11.98
2023-04-20T15:17:05.771Z,15.10
2023-04-20T15:19:50.547Z,10.65
2023-04-20T15:22:36.910Z,11.38
2023-04-20T15:25:22.756Z,11.38
2023-04-20T15:28:07.895Z,12.52
2023-04-20T15:30:53.077Z,11.85
2023-04-20T15:33:38.218Z,9.63
2023-04-20T15:36:23.098Z,10.30
2023-04-20T15:39:08.283Z,11.18
2023-04-20T15:41:53.571Z,9.45
2023-04-20T15:44:40.680Z,10.82
2023-04-20T15:47:25.533Z,10.32
2023-04-20T15:50:11.222Z,11.50
2023-04-20T15:52:56.436Z,11.18
2023-04-20T15:55:42.350Z,10.07
2023-04-20T15:58:28.789Z,11.93
2023-04-20T16:01:13.995Z,11.35
2023-04-20T16:03:59.304Z,11.98
2023-04-20T16:06:44.551Z,10.00
2023-04-20T16:09:29.350Z,11.77
2023-04-20T16:12:14.971Z,11.77
2023-04-20T16:15:01.159Z,10.93
2023-04-20T16:17:46.721Z,9.07
2023-04-20T16:20:31.765Z,9.48
2023-04-20T16:23:19.219Z,9.57
2023-04-20T16:26:04.461Z,10.88
2023-04-20T16:28:49.823Z,10.32
2023-04-20T16:31:36.533Z,9.48
2023-04-20T16:34:21.522Z,11.63
2023-04-20T16:37:06.642Z,10.93
2023-04-20T16:39:51.838Z,10.60
2023-04-20T16:42:36.966Z,11.45
2023-04-20T16:45:22.055Z,13.02
2023-04-20T16:48:08.155Z,15.05
2023-04-20T16:50:53.177Z,13.77
2023-04-20T16:53:38.130Z,12.60
2023-04-20T16:56:22.955Z,13.20
2023-04-20T16:59:09.146Z,11.35
2023-04-20T17:01:54.372Z,12.50
2023-04-20T17:04:39.573Z,11.63
2023-04-20T17:07:24.814Z,13.85
2023-04-20T17:10:10.040Z,12.43
2023-04-20T17:12:57.696Z,12.63
2023-04-20T17:15:45.140Z,16.33
2023-04-20T17:21:17.877Z,16.23
2023-04-20T17:24:03.393Z,12.15
2023-04-20T17:26:55.284Z,11.38
2023-04-20T17:29:43.146Z,14.45
2023-04-20T17:32:28.562Z,13.50
2023-04-20T17:35:14.017Z,12.77
2023-04-20T17:37:59.720Z,14.68
2023-04-20T17:40:45.321Z,13.30
2023-04-20T17:43:33.579Z,14.45
2023-04-20T17:46:18.881Z,12.30
2023-04-20T17:49:05.997Z,12.07
2023-04-20T17:51:51.424Z,15.10
2023-04-20T17:54:36.767Z,13.90
2023-04-20T17:57:24.778Z,11.40
2023-04-20T18:00:12.596Z,11.00
2023-04-20T18:02:58.954Z,11.07
2023-04-20T18:05:45.639Z,12.35
2023-04-20T18:08:30.755Z,12.02
2023-04-20T18:11:16.010Z,13.10
2023-04-20T18:14:01.269Z,15.02
2023-04-20T18:16:46.411Z,10.93
2023-04-20T18:19:32.634Z,9.55
2023-04-20T18:22:18.094Z,13.52
2023-04-20T18:25:04.673Z,12.13
2023-04-20T18:27:49.471Z,13.05
2023-04-20T18:30:34.828Z,10.55
2023-04-20T18:33:20.396Z,12.65
2023-04-20T18:36:09.642Z,11.55
2023-04-20T18:38:55.197Z,11.60
2023-04-20T18:41:40.658Z,14.05
2023-04-20T18:44:28.103Z,14.68
2023-04-20T18:47:17.571Z,15.25
2023-04-20T18:50:02.748Z,15.48
2023-04-20T18:52:50.952Z,16.83
2023-04-20T18:55:37.600Z,11.75
2023-04-20T18:58:22.986Z,12.43
2023-04-20T19:01:07.857Z,14.48
2023-04-20T19:03:53.290Z,12.65
2023-04-20T19:06:39.803Z,15.07
2023-04-20T19:09:25.850Z,17.73
2023-04-20T19:12:13.638Z,14.13
2023-04-20T19:15:01.490Z,14.52
2023-04-20T19:17:47.511Z,14.13
2023-04-20T19:20:35.808Z,15.07
2023-04-20T19:23:21.979Z,16.08
2023-04-20T19:26:07.294Z,15.15
2023-04-20T19:28:54.347Z,14.82
2023-04-20T19:31:40.637Z,14.27
2023-04-20T19:34:25.424Z,13.43
2023-04-20T19:37:10.589Z,14.20
2023-04-20T19:39:56.090Z,15.52
2023-04-20T19:42:42.486Z,16.48
2023-04-20T19:45:27.597Z,19.40
2023-04-20T19:48:12.635Z,17.42
2023-04-20T19:51:01.956Z,16.92
2023-04-20T19:53:46.949Z,13.52
2023-04-20T19:56:35.154Z,16.23
2023-04-20T19:59:20.687Z,15.90
2023-04-20T20:02:06.191Z,14.90
2023-04-20T20:04:55.504Z,13.77
2023-04-20T20:07:42.627Z,16.48
2023-04-20T20:10:27.361Z,17.67
2023-04-20T20:13:15.658Z,13.05
2023-04-20T20:16:00.642Z,16.20
2023-04-20T20:18:48.041Z,13.65
2023-04-20T20:21:35.665Z,12.98
2023-04-20T20:26:47.224Z,18.88
2023-04-20T20:29:32.533Z,14.52
2023-04-20T20:32:17.465Z,13.07
2023-04-20T20:35:04.518Z,15.65
2023-04-20T20:37:50.048Z,16.77
2023-04-20T20:40:35.569Z,15.75
2023-04-20T20:43:24.310Z,17.10
2023-04-20T20:46:11.882Z,20.63
2023-04-20T20:49:00.784Z,18.17
2023-04-20T20:51:46.584Z,20.20
2023-04-20T20:54:31.871Z,22.33
2023-04-20T20:57:17.850Z,15.48
2023-04-20T21:00:07.712Z,18.92
2023-04-20T21:02:52.866Z,19.77
2023-04-20T21:05:37.745Z,17.73
2023-04-20T21:08:24.890Z,15.05
2023-04-20T21:11:10.170Z,19.75
2023-04-20T21:14:02.090Z,14.65
2023-04-20T21:16:47.561Z,15.68
2023-04-20T21:19:32.792Z,14.43
2023-04-20T21:22:18.283Z,18.75
2023-04-20T21:25:03.798Z,14.73
2023-04-20T21:27:49.101Z,19.55
2023-04-20T21:30:34.309Z,15.40
2023-04-20T21:33:21.771Z,15.98
2023-04-20T21:38:53.414Z,15.55
2023-04-20T21:41:38.622Z,16.02
2023-04-20T21:44:24.643Z,14.60
2023-04-20T21:47:09.623Z,18.33
2023-04-20T21:49:54.923Z,15.15
2023-04-20T21:52:39.962Z,15.80
2023-04-20T21:55:25.255Z,14.75
2023-04-20T21:58:11.173Z,14.93
2023-04-20T22:00:56.520Z,14.02
2023-04-20T22:03:41.740Z,16.02
2023-04-20T22:06:26.973Z,16.33
2023-04-20T22:09:11.756Z,17.40
2023-04-20T22:11:58.581Z,13.68
2023-04-20T22:14:43.469Z,14.63
2023-04-20T22:17:30.094Z,13.85
2023-04-20T22:20:16.577Z,16.73
2023-04-20T22:23:02.025Z,13.35
2023-04-20T22:25:47.761Z,17.00
2023-04-20T22:28:33.430Z,13.45
2023-04-20T22:31:18.696Z,16.25
2023-04-20T22:34:03.754Z,16.98
2023-04-20T22:36:48.998Z,13.95
2023-04-20T22:39:34.061Z,17.60
2023-04-20T22:42:19.320Z,13.43
2023-04-20T22:45:04.762Z,14.45
2023-04-20T22:47:50.101Z,11.35
2023-04-20T22:50:35.123Z,12.75
2023-04-20T22:53:20.852Z,14.88
2023-04-20T22:56:07.333Z,14.07
2023-04-20T22:58:52.903Z,14.15
2023-04-20T23:01:38.070Z,11.70
2023-04-20T23:04:23.257Z,12.80
2023-04-20T23:07:08.268Z,13.90
2023-04-20T23:09:53.571Z,12.30
2023-04-20T23:12:38.368Z,11.93
2023-04-20T23:15:23.322Z,14.27
2023-04-20T23:18:08.416Z,13.50
2023-04-20T23:20:53.534Z,15.95
2023-04-20T23:23:38.315Z,15.45
2023-04-20T23:26:24.223Z,14.55
2023-04-20T23:29:09.674Z,14.68
2023-04-20T23:31:55.072Z,15.95
2023-04-20T23:34:40.169Z,15.43
2023-04-20T23:37:25.217Z,12.68
2023-04-20T23:40:10.449Z,12.93
2023-04-20T23:42:55.378Z,13.02
2023-04-20T23:45:40.366Z,14.63
2023-04-20T23:48:25.679Z,14.18
2023-04-20T23:51:10.878Z,12.63
2023-04-20T23:53:56.062Z,13.85
2023-04-20T23:56:41.071Z,12.77
2023-04-20T23:59:26.704Z,16.27
